Time;durP1;ratioP1;P1;durP2;ratioP2;P2;SDS_P1;SDS_P2;PMS_P1;PMS_P2;Temp;Humidity;BMP_temperature;BMP_pressure;BME280_temperature;BME280_humidity;BME280_pressure;Samples;Min_cycle;Max_cycle;Signal;HPM_P1;HPM_P2
2022/09/01 00:03:17;;;;;;;6.30;3.67;;;;;;;9.79;100.00;97173.13;10371029;28;20189;-72
2022/09/01 00:08:17;;;;;;;4.57;4.00;;;;;;;9.78;100.00;97178.47;10371050;28;20260;-72
2022/09/01 00:13:18;;;;;;;4.20;3.33;;;;;;;9.80;100.00;97176.53;10369339;28;20259;-72
2022/09/01 00:18:18;;;;;;;5.80;3.53;;;;;;;9.78;100.00;97186.34;10369866;28;20185;-72
2022/09/01 00:23:18;;;;;;;3.53;2.97;;;;;;;9.79;100.00;97174.91;10370395;28;20204;-72
2022/09/01 00:28:19;;;;;;;4.13;3.07;;;;;;;9.77;100.00;97174.19;10369554;28;20220;-71
2022/09/01 00:33:19;;;;;;;3.70;3.23;;;;;;;9.74;100.00;97179.72;10369067;28;20201;-72
2022/09/01 00:38:19;;;;;;;5.67;3.27;;;;;;;9.67;100.00;97174.22;10369400;28;20308;-72
2022/09/01 00:43:23;;;;;;;4.03;2.97;;;;;;;9.66;100.00;97171.75;10368722;28;20185;-72
2022/09/01 00:48:24;;;;;;;4.27;3.70;;;;;;;9.59;100.00;97167.06;10368065;28;20715;-71
2022/09/01 00:53:25;;;;;;;8.93;3.97;;;;;;;9.57;100.00;97169.00;10369519;28;20193;-72
2022/09/01 00:58:25;;;;;;;5.00;3.50;;;;;;;9.52;100.00;97158.13;10369164;28;20224;-71
2022/09/01 01:03:26;;;;;;;3.60;3.30;;;;;;;9.45;100.00;97159.66;10368325;28;20272;-72
2022/09/01 01:08:32;;;;;;;5.23;3.20;;;;;;;9.38;100.00;97159.38;10369082;28;20217;-72
2022/09/01 01:13:48;;;;;;;8.10;4.00;;;;;;;9.42;100.00;97166.00;10367673;28;20247;-72
2022/09/01 01:18:49;;;;;;;5.90;3.70;;;;;;;9.45;100.00;97165.72;10351492;28;20207;-72
2022/09/01 01:24:05;;;;;;;7.93;3.97;;;;;;;9.43;100.00;97162.41;10367248;28;20193;-72
2022/09/01 01:29:08;;;;;;;4.70;3.20;;;;;;;9.49;100.00;97160.19;10372581;28;20695;-72
2022/09/01 01:34:09;;;;;;;5.43;3.73;;;;;;;9.48;100.00;97161.16;10376558;28;20235;-72
2022/09/01 01:39:16;;;;;;;4.93;3.33;;;;;;;9.51;100.00;97160.88;10376890;28;20246;-72
2022/09/01 01:44:22;;;;;;;3.87;3.47;;;;;;;9.47;100.00;97165.56;10376275;28;20209;-72
2022/09/01 01:49:24;;;;;;;4.23;3.40;;;;;;;9.37;100.00;97168.19;10375136;28;20193;-72
2022/09/01 01:54:28;;;;;;;4.40;3.40;;;;;;;9.33;100.00;97158.16;10374868;28;20557;-72
2022/09/01 01:59:29;;;;;;;9.50;3.40;;;;;;;9.29;100.00;97154.97;10375617;28;20868;-72
2022/09/01 02:04:32;;;;;;;7.10;3.63;;;;;;;9.28;100.00;97164.63;10373349;28;20225;-72
2022/09/01 02:09:35;;;;;;;3.97;2.93;;;;;;;9.21;100.00;97160.06;10374000;28;20624;-73
2022/09/01 02:14:35;;;;;;;4.37;3.33;;;;;;;9.19;100.00;97162.81;10375485;28;20196;-72
2022/09/01 02:19:41;;;;;;;3.57;3.27;;;;;;;9.16;100.00;97159.63;10374010;28;20209;-72
2022/09/01 02:24:47;;;;;;;11.20;3.77;;;;;;;9.19;100.00;97159.34;10357401;28;20256;-72
2022/09/01 02:29:49;;;;;;;4.50;3.77;;;;;;;9.15;100.00;97169.28;10374610;28;20193;-72
2022/09/01 02:34:52;;;;;;;3.97;3.57;;;;;;;9.18;100.00;97168.19;10372723;28;20210;-73
2022/09/01 02:39:56;;;;;;;7.10;3.70;;;;;;;9.26;100.00;97158.72;10372130;28;20856;-73
2022/09/01 02:44:57;;;;;;;7.43;3.30;;;;;;;9.18;100.00;97155.13;10374201;28;20224;-72
2022/09/01 02:50:02;;;;;;;5.77;4.40;;;;;;;9.13;100.00;97150.28;10373216;28;20678;-73
2022/09/01 02:55:03;;;;;;;4.13;3.73;;;;;;;9.08;100.00;97149.84;10372108;28;20204;-73
2022/09/01 03:00:19;;;;;;;3.73;3.43;;;;;;;9.07;100.00;97143.81;10369621;28;20197;-72
2022/09/01 03:05:24;;;;;;;3.83;3.20;;;;;;;8.99;100.00;97145.44;10369918;28;20225;-72
2022/09/01 03:10:31;;;;;;;9.87;3.87;;;;;;;8.99;100.00;97137.59;10368839;28;20204;-72
2022/09/01 03:15:32;;;;;;;8.43;4.00;;;;;;;9.00;100.00;97147.94;10366797;28;20193;-73
2022/09/01 03:20:35;;;;;;;4.67;3.70;;;;;;;8.97;100.00;97142.97;10367323;28;20272;-73
2022/09/01 03:25:36;;;;;;;8.23;3.77;;;;;;;9.00;100.00;97136.66;10367164;28;20220;-72
2022/09/01 03:30:39;;;;;;;3.90;3.50;;;;;;;9.02;100.00;97137.34;10367793;28;20723;-73
2022/09/01 03:35:39;;;;;;;4.10;3.70;;;;;;;9.02;100.00;97132.97;10366522;28;20213;-73
2022/09/01 03:40:40;;;;;;;4.77;3.60;;;;;;;9.12;100.00;97129.53;10367158;28;20185;-73
2022/09/01 03:45:40;;;;;;;5.00;3.70;;;;;;;9.14;100.00;97138.03;10366448;28;20232;-73
2022/09/01 03:50:46;;;;;;;5.30;3.73;;;;;;;9.20;100.00;97132.25;10366543;28;20193;-73
2022/09/01 03:55:47;;;;;;;3.93;3.27;;;;;;;9.25;100.00;97130.91;10367927;28;20229;-73
2022/09/01 04:00:54;;;;;;;3.80;3.50;;;;;;;9.22;100.00;97132.97;10349879;28;20239;-73
2022/09/01 04:05:54;;;;;;;4.07;3.40;;;;;;;9.28;100.00;97138.47;10369619;28;20588;-73
2022/09/01 04:10:55;;;;;;;7.80;4.33;;;;;;;9.19;100.00;97136.69;10369901;28;20225;-73
2022/09/01 04:15:56;;;;;;;4.67;3.43;;;;;;;9.21;100.00;97131.31;10369439;28;20197;-73
2022/09/01 04:20:58;;;;;;;3.93;3.53;;;;;;;9.33;100.00;97143.28;10369006;28;20248;-73
2022/09/01 04:26:07;;;;;;;5.07;3.70;;;;;;;9.36;100.00;97137.78;10370324;28;20263;-73
2022/09/01 04:31:17;;;;;;;6.03;3.57;;;;;;;9.27;100.00;97134.19;10368294;28;20788;-73
2022/09/01 04:36:22;;;;;;;4.50;3.10;;;;;;;9.24;100.00;97138.88;10352949;28;20205;-73
2022/09/01 04:41:25;;;;;;;3.33;2.83;;;;;;;9.18;100.00;97132.41;10368415;28;20281;-73
2022/09/01 04:46:30;;;;;;;4.20;3.30;;;;;;;9.20;100.00;97133.09;10351871;28;20291;-73
2022/09/01 04:51:32;;;;;;;5.83;3.27;;;;;;;9.28;100.00;97137.66;10368371;28;20197;-73
2022/09/01 04:56:34;;;;;;;7.27;3.20;;;;;;;9.41;100.00;97140.78;10369071;28;20279;-73
2022/09/01 05:01:42;;;;;;;3.50;3.00;;;;;;;9.54;100.00;97135.28;10352742;28;20186;-73
2022/09/01 05:06:48;;;;;;;4.80;3.40;;;;;;;9.70;100.00;97134.72;10367584;28;20217;-72
2022/09/01 05:11:50;;;;;;;3.50;3.07;;;;;;;9.78;100.00;97134.81;10366428;28;20681;-72
2022/09/01 05:16:57;;;;;;;5.53;3.57;;;;;;;9.87;100.00;97133.16;10350072;28;20620;-72
2022/09/01 05:21:58;;;;;;;3.80;2.97;;;;;;;10.03;100.00;97129.97;10367538;28;20185;-72
2022/09/01 05:26:59;;;;;;;4.13;3.00;;;;;;;10.09;100.00;97125.94;10351036;28;20577;-72
2022/09/01 05:32:08;;;;;;;4.63;3.13;;;;;;;10.29;100.00;97124.91;10367569;28;20189;-72
2022/09/01 05:37:13;;;;;;;5.27;2.70;;;;;;;10.54;100.00;97120.00;10351902;28;20197;-72
2022/09/01 05:42:14;;;;;;;7.43;3.17;;;;;;;10.68;100.00;97118.66;10349309;28;20224;-72
2022/09/01 05:47:15;;;;;;;2.97;2.57;;;;;;;10.78;100.00;97110.72;10346844;28;20363;-72
2022/09/01 05:52:15;;;;;;;6.77;2.50;;;;;;;10.90;100.00;97104.31;10367056;28;20186;-72
2022/09/01 05:57:16;;;;;;;5.97;2.70;;;;;;;11.11;100.00;97104.00;10366957;28;20732;-72
2022/09/01 06:02:17;;;;;;;3.65;2.20;;;;;;;11.62;100.00;97106.06;10366736;28;20213;-72
2022/09/01 06:07:17;;;;;;;4.60;2.40;;;;;;;11.67;100.00;97093.28;10366664;28;20279;-72
2022/09/01 06:12:26;;;;;;;2.75;2.00;;;;;;;11.82;100.00;97102.25;10366670;28;20657;-72
2022/09/01 06:17:28;;;;;;;5.85;2.47;;;;;;;11.89;100.00;97097.22;10373272;28;20185;-72
2022/09/01 06:22:33;;;;;;;2.83;1.98;;;;;;;12.19;100.00;97105.59;10369933;28;20192;-72
2022/09/01 06:27:37;;;;;;;5.63;2.30;;;;;;;12.72;100.00;97115.00;10374283;28;20752;-73
2022/09/01 06:32:39;;;;;;;5.15;2.30;;;;;;;13.29;100.00;97110.84;10372976;28;20272;-72
2022/09/01 06:37:42;;;;;;;3.67;2.15;;;;;;;13.62;100.00;97110.88;10372101;28;20636;-72
2022/09/01 06:42:46;;;;;;;3.42;2.10;;;;;;;13.72;100.00;97103.59;10360945;28;20669;-72
2022/09/01 06:47:49;;;;;;;3.83;2.33;;;;;;;14.19;100.00;97108.13;10388868;28;20213;-72
2022/09/01 06:52:58;;;;;;;6.78;2.67;;;;;;;14.86;100.00;97112.16;10357062;28;20196;-72
2022/09/01 06:57:58;;;;;;;4.75;1.80;;;;;;;15.33;100.00;97092.72;10371703;28;20225;-72
2022/09/01 07:02:59;;;;;;;5.40;2.03;;;;;;;15.83;100.00;97089.66;10366952;28;20189;-72
2022/09/01 07:08:38;;;;;;;7.95;1.63;;;;;;;15.47;100.00;97077.09;10359267;28;20238;-72
2022/09/01 07:13:44;;;;;;;4.10;1.80;;;;;;;16.69;100.00;97095.28;10329684;28;20194;-72
2022/09/01 07:18:44;;;;;;;2.75;1.90;;;;;;;16.32;100.00;97091.75;10330249;28;20277;-72
2022/09/01 07:23:45;;;;;;;2.90;2.03;;;;;;;17.17;99.27;97068.31;10365501;28;20193;-73
2022/09/01 07:28:49;;;;;;;3.60;2.10;;;;;;;17.62;98.96;97074.19;10365823;28;20245;-73
2022/09/01 07:33:53;;;;;;;4.45;2.55;;;;;;;18.46;90.96;97058.41;10367594;28;20331;-73
2022/09/01 07:38:54;;;;;;;8.20;2.40;;;;;;;18.71;84.61;97017.06;10350309;28;20216;-73
2022/09/01 07:43:55;;;;;;;3.42;2.55;;;;;;;18.40;86.99;97037.97;10325927;28;20257;-73
2022/09/01 07:49:28;;;;;;;4.80;3.05;;;;;;;19.24;82.23;97016.31;10347967;28;20221;-72
2022/09/01 07:54:28;;;;;;;5.57;2.40;;;;;;;20.17;79.69;97011.94;10347475;28;20331;-73
2022/09/01 07:59:32;;;;;;;5.65;2.42;;;;;;;21.19;73.93;96979.19;10329792;28;20811;-73
2022/09/01 08:04:38;;;;;;;8.65;2.53;;;;;;;20.52;76.13;97013.41;10375306;28;20308;-72
2022/09/01 08:09:39;;;;;;;4.40;2.47;;;;;;;20.43;75.18;97008.34;10365363;28;20190;-73
2022/09/01 08:14:40;;;;;;;7.10;2.58;;;;;;;21.61;71.44;96989.31;10364285;28;20193;-73
2022/09/01 08:19:42;;;;;;;5.25;2.15;;;;;;;22.22;67.20;96953.75;10363850;28;20189;-73
2022/09/01 08:24:46;;;;;;;2.80;1.70;;;;;;;22.51;64.92;96940.69;10359580;28;20217;-72
2022/09/01 08:29:47;;;;;;;3.42;1.90;;;;;;;23.06;62.48;96933.47;10357563;28;20194;-73
2022/09/01 08:34:48;;;;;;;2.65;2.00;;;;;;;23.06;64.16;96970.88;10363050;28;20208;-72
2022/09/01 08:39:48;;;;;;;4.03;2.03;;;;;;;23.03;62.78;96956.09;10364225;28;20216;-72
2022/09/01 08:45:10;;;;;;;3.78;2.35;;;;;;;21.67;66.26;96989.25;10364747;28;20235;-72
2022/09/01 08:50:13;;;;;;;4.25;2.20;;;;;;;21.27;69.00;97029.56;10365084;28;20247;-72
2022/09/01 08:55:43;;;;;;;3.35;2.03;;;;;;;21.66;66.42;96986.81;10364045;28;20228;-72
2022/09/01 09:00:50;;;;;;;4.80;1.98;;;;;;;23.41;58.96;96909.44;10347537;28;20217;-72
2022/09/01 09:06:03;;;;;;;3.90;2.10;;;;;;;23.92;57.21;96898.22;10364816;28;20225;-71
2022/09/01 09:11:29;;;;;;;2.60;1.23;;;;;;;23.30;57.01;96894.22;10365874;28;20201;-71
2022/09/01 09:16:34;;;;;;;2.58;1.55;;;;;;;23.86;52.70;96844.63;10346305;28;20208;-72
2022/09/01 09:21:43;;;;;;;6.00;2.03;;;;;;;23.44;55.29;96890.25;10363575;28;20193;-72
2022/09/01 09:26:57;;;;;;;4.82;1.63;;;;;;;23.31;58.09;96938.66;10365466;28;20221;-72
2022/09/01 09:32:05;;;;;;;3.70;2.13;;;;;;;23.25;61.34;96993.84;10365010;28;20576;-72
2022/09/01 09:37:29;;;;;;;5.55;1.77;;;;;;;23.65;56.93;96915.59;10364110;28;20828;-71
2022/09/01 09:42:29;;;;;;;4.18;1.88;;;;;;;23.04;57.96;96932.91;10365016;28;20193;-71
2022/09/01 09:47:41;;;;;;;4.82;1.95;;;;;;;23.78;54.28;96890.44;10367242;28;20290;-72
2022/09/01 09:52:46;;;;;;;4.38;1.63;;;;;;;24.07;53.23;96868.28;10390963;28;21019;-72
2022/09/01 09:57:47;;;;;;;5.82;2.00;;;;;;;23.42;56.91;96929.78;10390568;28;20588;-72
2022/09/01 10:02:59;;;;;;;6.70;2.00;;;;;;;24.60;54.82;96922.56;10389683;28;20186;-73
2022/09/01 10:07:59;;;;;;;5.57;1.90;;;;;;;24.18;54.35;96905.69;10376982;28;21010;-72
2022/09/01 10:13:00;;;;;;;4.97;1.83;;;;;;;25.50;51.18;96891.25;10371896;28;20308;-72
2022/09/01 10:18:06;;;;;;;4.10;2.22;;;;;;;26.27;47.55;96824.25;10372187;28;20261;-72
2022/09/01 10:23:07;;;;;;;4.20;1.92;;;;;;;25.52;48.87;96822.06;10360318;28;20201;-72
2022/09/01 10:28:11;;;;;;;6.17;1.97;;;;;;;24.60;51.56;96860.94;10329530;28;20309;-72
2022/09/01 10:33:14;;;;;;;1.95;1.17;;;;;;;25.82;47.62;96820.81;10345225;28;20456;-71
2022/09/01 10:38:18;;;;;;;4.45;1.27;;;;;;;27.43;43.80;96784.19;10362937;28;20225;-72
2022/09/01 10:43:37;;;;;;;7.78;1.90;;;;;;;27.48;43.93;96794.97;10335813;28;20654;-72
2022/09/01 10:48:38;;;;;;;3.00;1.65;;;;;;;27.01;44.62;96793.09;10330302;28;20570;-72
2022/09/01 10:53:45;;;;;;;6.20;1.90;;;;;;;25.84;47.51;96818.69;10331086;28;20194;-70
2022/09/01 10:58:57;;;;;;;6.40;1.98;;;;;;;26.63;45.76;96806.56;10346626;28;20225;-71
2022/09/01 11:03:58;;;;;;;4.68;1.77;;;;;;;27.68;44.51;96823.84;10355950;28;20260;-72
2022/09/01 11:09:04;;;;;;;1.63;1.27;;;;;;;27.65;42.95;96792.06;10368939;28;20597;-72
2022/09/01 11:14:16;;;;;;;5.22;1.40;;;;;;;25.16;45.75;96762.59;10368542;28;20455;-71
2022/09/01 11:19:44;;;;;;;5.35;1.48;;;;;;;24.93;44.60;96724.25;10347275;28;20201;-71
2022/09/01 11:24:51;;;;;;;5.13;1.50;;;;;;;25.01;46.62;96784.66;10340125;28;20213;-71
2022/09/01 11:29:59;;;;;;;6.20;2.30;;;;;;;24.95;47.43;96803.56;10369140;28;20202;-72
2022/09/01 11:35:05;;;;;;;3.38;1.70;;;;;;;25.74;44.84;96768.41;10363069;28;20245;-71
2022/09/01 11:40:09;;;;;;;2.78;1.35;;;;;;;24.60;46.75;96788.63;10362817;28;20232;-71
2022/09/01 11:45:20;;;;;;;4.57;1.80;;;;;;;24.83;47.54;96806.38;10366806;28;20221;-72
2022/09/01 11:50:25;;;;;;;4.32;1.45;;;;;;;26.45;43.16;96763.97;10366925;28;20646;-72
2022/09/01 11:55:41;;;;;;;6.88;1.13;;;;;;;27.15;41.31;96731.59;10366542;28;20312;-72
2022/09/01 12:00:41;;;;;;;3.85;1.13;;;;;;;26.01;43.61;96745.34;10367085;28;20197;-72
2022/09/01 12:05:42;;;;;;;3.17;1.00;;;;;;;26.65;40.87;96699.59;10367537;28;20228;-73
2022/09/01 12:10:44;;;;;;;1.80;1.10;;;;;;;27.81;40.23;96732.88;10348147;28;20666;-71
2022/09/01 12:15:53;;;;;;;1.83;1.20;;;;;;;26.78;40.33;96687.59;10327086;28;20225;-72
2022/09/01 12:20:58;;;;;;;4.22;1.08;;;;;;;27.38;37.36;96642.41;10326481;28;20690;-72
2022/09/01 12:26:09;;;;;;;5.35;1.35;;;;;;;27.73;36.79;96634.63;10326673;28;20312;-71
2022/09/01 12:31:15;;;;;;;2.80;1.10;;;;;;;27.71;36.58;96624.13;10325801;28;20759;-71
2022/09/01 12:36:28;;;;;;;3.53;1.60;;;;;;;29.76;36.12;96694.72;10325999;28;20796;-71
2022/09/01 12:41:37;;;;;;;4.32;1.40;;;;;;;26.65;41.20;96694.22;10339253;28;20201;-71
2022/09/01 12:46:42;;;;;;;3.03;1.42;;;;;;;24.73;44.14;96716.75;10366511;28;20309;-70
2022/09/01 12:51:42;;;;;;;6.25;1.60;;;;;;;23.69;48.56;96801.72;10366323;28;20561;-71
2022/09/01 12:56:47;;;;;;;2.35;1.30;;;;;;;23.67;48.35;96784.28;10365635;28;20244;-71
2022/09/01 13:01:48;;;;;;;3.83;1.30;;;;;;;22.50;49.92;96781.53;10361106;28;20198;-71
2022/09/01 13:06:48;;;;;;;4.32;1.20;;;;;;;22.20;52.01;96826.91;10365845;28;20232;-71
2022/09/01 13:11:48;;;;;;;2.22;1.40;;;;;;;21.73;50.27;96779.56;10364442;28;20592;-72
2022/09/01 13:16:49;;;;;;;4.38;0.95;;;;;;;21.18;47.76;96693.31;10365130;28;20280;-72
2022/09/01 13:21:49;;;;;;;1.38;0.90;;;;;;;21.21;47.59;96694.72;10365662;28;20185;-73
2022/09/01 13:26:54;;;;;;;1.38;0.95;;;;;;;21.49;45.24;96650.69;10373499;28;20232;-73
2022/09/01 13:31:56;;;;;;;3.55;1.50;;;;;;;21.99;47.07;96714.38;10372895;28;20201;-72
2022/09/01 13:36:56;;;;;;;2.20;1.70;;;;;;;22.68;45.67;96703.16;10358412;28;20693;-73
2022/09/01 13:41:56;;;;;;;2.65;1.05;;;;;;;22.33;45.15;96671.97;10350593;28;20201;-72
2022/09/01 13:46:57;;;;;;;2.30;1.13;;;;;;;22.51;46.55;96710.25;10355991;28;20213;-74
2022/09/01 13:51:57;;;;;;;4.88;1.23;;;;;;;24.32;43.37;96700.06;10348159;28;20280;-73
2022/09/01 13:56:58;;;;;;;2.40;1.10;;;;;;;24.36;41.86;96660.19;10350833;28;20737;-73
2022/09/01 14:02:00;;;;;;;1.20;1.10;;;;;;;24.39;41.41;96657.88;10339509;28;20202;-72
2022/09/01 14:07:00;;;;;;;2.15;1.27;;;;;;;24.48;41.52;96658.22;10332124;28;20714;-73
2022/09/01 14:12:01;;;;;;;1.73;1.00;;;;;;;25.38;37.88;96569.53;10331903;28;20190;-72
2022/09/01 14:17:02;;;;;;;0.95;0.80;;;;;;;25.75;38.84;96624.28;10338574;28;20662;-73
2022/09/01 14:22:04;;;;;;;3.78;1.30;;;;;;;24.88;39.89;96625.00;10371660;28;20654;-74
2022/09/01 14:27:05;;;;;;;2.08;1.10;;;;;;;24.36;40.33;96603.97;10371657;28;20224;-73
2022/09/01 14:32:06;;;;;;;2.33;1.27;;;;;;;25.25;38.86;96624.38;10371657;28;20567;-74
2022/09/01 14:37:07;;;;;;;3.38;0.80;;;;;;;26.91;34.63;96556.47;10370127;28;20474;-72
2022/09/01 14:42:08;;;;;;;2.65;1.10;;;;;;;29.69;31.77;96572.72;10371320;28;20212;-72
2022/09/01 14:47:09;;;;;;;2.58;1.75;;;;;;;29.94;35.03;96671.66;10370598;28;20620;-72
2022/09/01 14:52:10;;;;;;;2.05;1.10;;;;;;;26.76;41.32;96707.75;10350766;28;20263;-72
2022/09/01 14:57:12;;;;;;;2.38;1.05;;;;;;;25.62;42.07;96690.72;10354507;28;20352;-73
2022/09/01 15:02:13;;;;;;;3.60;1.38;;;;;;;24.09;45.56;96727.81;10368614;28;20280;-73
2022/09/01 15:07:14;;;;;;;1.95;1.30;;;;;;;23.45;47.90;96776.13;10370090;28;20243;-73
2022/09/01 15:12:14;;;;;;;4.05;1.52;;;;;;;21.85;51.02;96793.78;10361082;28;20280;-73
2022/09/01 15:17:14;;;;;;;4.15;1.50;;;;;;;21.08;53.74;96823.53;10352758;28;20205;-73
2022/09/01 15:22:15;;;;;;;2.33;1.15;;;;;;;20.67;52.48;96804.50;10352611;28;20216;-74
2022/09/01 15:27:15;;;;;;;3.75;0.90;;;;;;;20.24;51.97;96780.44;10360101;28;20236;-73
2022/09/01 15:32:15;;;;;;;4.78;1.40;;;;;;;19.80;53.95;96820.22;10369018;28;20193;-73
2022/09/01 15:38:10;;;;;;;2.30;1.20;;;;;;;19.90;51.72;96778.00;10364180;28;20201;-72
2022/09/01 15:43:11;;;;;;;2.78;1.30;;;;;;;19.36;54.52;96832.44;10328017;28;20280;-73
2022/09/01 15:48:11;;;;;;;4.20;1.02;;;;;;;19.56;54.26;96817.22;10347130;28;20209;-73
2022/09/01 15:53:12;;;;;;;3.35;1.33;;;;;;;19.73;54.71;96827.38;10348160;28;20201;-72
2022/09/01 15:58:14;;;;;;;1.33;1.13;;;;;;;19.62;54.61;96826.19;10362298;28;20236;-73
2022/09/01 16:03:15;;;;;;;1.33;1.02;;;;;;;19.61;53.62;96801.44;10367845;28;20307;-72
2022/09/01 16:08:15;;;;;;;3.83;1.08;;;;;;;19.23;55.00;96820.81;10367497;28;20221;-73
2022/09/01 16:13:16;;;;;;;4.00;1.10;;;;;;;19.32;55.24;96823.22;10368075;28;20191;-72
2022/09/01 16:18:28;;;;;;;5.95;1.30;;;;;;;19.42;55.20;96827.06;10366883;28;20658;-73
2022/09/01 16:23:41;;;;;;;1.33;0.80;;;;;;;19.12;56.79;96845.34;10339213;28;20200;-72
2022/09/01 16:28:44;;;;;;;12.00;1.13;;;;;;;18.82;58.90;96888.25;10362955;28;20229;-73
2022/09/01 16:33:48;;;;;;;2.08;1.30;;;;;;;18.51;60.98;96912.69;10347516;28;20221;-73
2022/09/01 16:38:53;;;;;;;1.33;1.08;;;;;;;18.04;63.36;96959.50;10347905;28;20192;-73
2022/09/01 16:44:06;;;;;;;1.98;1.10;;;;;;;17.94;63.92;96946.63;10346676;28;20186;-73
2022/09/01 16:49:19;;;;;;;2.17;1.15;;;;;;;17.81;64.67;96965.91;10356040;28;20217;-73
2022/09/01 16:54:33;;;;;;;1.13;1.02;;;;;;;17.64;65.41;96966.22;10355663;28;20201;-73
2022/09/01 16:59:52;;;;;;;1.00;0.90;;;;;;;17.40;67.11;96987.84;10343397;28;20268;-72
2022/09/01 17:05:15;;;;;;;1.33;1.00;;;;;;;17.29;66.42;96960.88;10357497;28;20236;-73
2022/09/01 17:10:26;;;;;;;5.50;1.27;;;;;;;17.34;66.70;96970.91;10341813;28;20249;-73
2022/09/01 17:15:38;;;;;;;1.85;0.82;;;;;;;17.25;66.87;96970.22;10331349;28;20228;-73
2022/09/01 17:20:52;;;;;;;1.23;0.90;;;;;;;17.08;65.88;96945.84;10342509;28;20200;-73
2022/09/01 17:26:04;;;;;;;2.13;1.15;;;;;;;16.92;68.13;96986.66;10337989;28;20217;-73
2022/09/01 17:31:14;;;;;;;1.30;1.00;;;;;;;17.00;65.25;96942.53;10327647;28;20186;-73
2022/09/01 17:36:22;;;;;;;1.17;1.08;;;;;;;17.02;65.72;96954.56;10326950;28;20241;-73
2022/09/01 17:41:33;;;;;;;1.27;0.95;;;;;;;16.81;66.61;96976.53;10325590;28;20539;-73
2022/09/01 17:46:58;;;;;;;3.08;1.20;;;;;;;16.54;65.81;96954.31;10326935;28;20232;-73
2022/09/01 17:52:14;;;;;;;1.08;0.80;;;;;;;16.30;67.84;96980.09;10341928;28;20205;-73
2022/09/01 17:58:03;;;;;;;3.30;1.05;;;;;;;16.26;66.88;96964.78;10361960;28;20237;-73
2022/09/01 18:03:25;;;;;;;3.30;1.38;;;;;;;15.82;67.00;96958.59;10351344;28;20209;-73
2022/09/01 18:08:43;;;;;;;1.40;1.20;;;;;;;15.56;67.03;96954.56;10364468;28;20239;-73
2022/09/01 18:14:02;;;;;;;2.83;1.55;;;;;;;15.61;67.11;96960.09;10371572;28;20196;-73
2022/09/01 18:19:09;;;;;;;2.55;1.13;;;;;;;15.38;69.08;96997.13;10369828;28;20748;-72
2022/09/01 18:24:20;;;;;;;3.20;0.93;;;;;;;15.17;70.10;97011.00;10352612;28;20197;-72
2022/09/01 18:29:23;;;;;;;1.50;1.38;;;;;;;14.89;72.82;97043.22;10377016;28;20295;-73
2022/09/01 18:34:33;;;;;;;1.92;1.15;;;;;;;14.77;76.09;97078.91;10384342;28;20217;-73
2022/09/01 18:40:05;;;;;;;4.57;1.40;;;;;;;14.48;80.01;97088.25;10382784;28;20647;-73
2022/09/01 18:45:31;;;;;;;2.35;1.40;;;;;;;13.96;86.02;97094.03;10370004;28;20225;-73
2022/09/01 18:50:34;;;;;;;3.63;1.23;;;;;;;13.17;96.93;97100.66;10349534;28;20645;-72
2022/09/01 18:55:49;;;;;;;2.53;1.50;;;;;;;13.13;100.00;97095.88;10342831;28;20226;-72
2022/09/01 19:01:06;;;;;;;4.95;2.15;;;;;;;12.78;100.00;97108.28;10357662;28;20223;-71
2022/09/01 19:06:31;;;;;;;3.08;1.70;;;;;;;12.71;100.00;97102.88;10342304;28;20670;-72
2022/09/01 19:12:04;;;;;;;3.35;1.70;;;;;;;12.32;100.00;97106.00;10346913;28;20205;-71
2022/09/01 19:17:15;;;;;;;3.40;1.40;;;;;;;12.16;100.00;97108.53;10343373;28;20181;-71
2022/09/01 19:23:00;;;;;;;2.72;1.38;;;;;;;12.12;100.00;97100.16;10346939;28;20217;-72
2022/09/01 19:28:31;;;;;;;3.63;1.60;;;;;;;12.04;100.00;97098.31;10331862;28;20592;-72
2022/09/01 19:33:33;;;;;;;6.07;1.55;;;;;;;11.90;100.00;97099.69;10350313;28;20196;-72
2022/09/01 19:38:36;;;;;;;4.57;1.75;;;;;;;11.54;100.00;97099.78;10361078;28;20205;-71
2022/09/01 19:43:39;;;;;;;3.33;1.70;;;;;;;11.53;100.00;97099.94;10349106;28;20212;-73
2022/09/01 19:48:50;;;;;;;2.00;1.60;;;;;;;11.48;100.00;97102.19;10335792;28;20323;-73
2022/09/01 19:53:51;;;;;;;3.00;1.73;;;;;;;11.41;100.00;97110.66;10325435;28;20205;-73
2022/09/01 19:58:58;;;;;;;4.03;1.85;;;;;;;11.20;100.00;97110.97;10326618;28;20244;-73
2022/09/01 20:04:04;;;;;;;4.28;1.75;;;;;;;11.12;100.00;97116.16;10326084;28;20297;-73
2022/09/01 20:09:19;;;;;;;9.43;1.67;;;;;;;11.11;100.00;97113.69;10325391;28;20230;-73
2022/09/01 20:14:58;;;;;;;4.88;2.08;;;;;;;10.96;100.00;97113.38;10327724;28;20189;-73
2022/09/01 20:20:06;;;;;;;7.50;1.90;;;;;;;10.94;100.00;97110.09;10328354;28;20218;-73
2022/09/01 20:25:11;;;;;;;1.88;1.55;;;;;;;10.91;100.00;97111.22;10360039;28;20737;-73
2022/09/01 20:30:24;;;;;;;1.95;1.52;;;;;;;10.77;100.00;97107.31;10368698;28;20197;-73
2022/09/01 20:35:39;;;;;;;4.87;1.60;;;;;;;10.69;100.00;97118.53;10367011;28;20217;-72
2022/09/01 20:40:40;;;;;;;5.13;1.97;;;;;;;10.59;100.00;97115.13;10367488;28;20728;-73
2022/09/01 20:45:41;;;;;;;3.97;2.10;;;;;;;10.55;100.00;97119.03;10367930;28;20227;-73
2022/09/01 20:50:41;;;;;;;6.90;1.93;;;;;;;10.41;100.00;97117.69;10368698;28;20204;-73
2022/09/01 20:56:12;;;;;;;2.23;1.70;;;;;;;10.36;100.00;97127.78;10368603;28;20240;-73
2022/09/01 21:01:31;;;;;;;2.47;1.70;;;;;;;10.29;100.00;97113.59;10367951;28;20236;-73
2022/09/01 21:32:33;;;;;;;6.67;2.20;;;;;;;9.78;100.00;97118.31;10206510;28;20566;-73
2022/09/01 21:37:34;;;;;;;6.00;2.10;;;;;;;9.81;100.00;97118.03;10408457;28;20204;-73
2022/09/01 21:42:38;;;;;;;4.67;2.30;;;;;;;9.76;100.00;97125.47;10407217;28;20188;-73
2022/09/01 21:47:40;;;;;;;2.77;2.20;;;;;;;9.69;100.00;97117.34;10415167;28;20754;-73
2022/09/01 21:52:40;;;;;;;6.07;2.30;;;;;;;9.63;100.00;97112.69;10397907;28;20193;-73
2022/09/01 21:57:41;;;;;;;3.80;1.90;;;;;;;9.67;100.00;97108.00;10415178;28;20263;-73
2022/09/01 22:02:42;;;;;;;5.77;2.00;;;;;;;9.61;100.00;97110.22;10415212;28;20192;-73
2022/09/01 22:07:45;;;;;;;5.43;1.90;;;;;;;9.58;100.00;97112.28;10414951;28;20212;-73
2022/09/01 22:12:47;;;;;;;2.23;1.97;;;;;;;9.52;100.00;97111.03;10415427;28;20216;-73
2022/09/01 22:17:48;;;;;;;3.43;1.80;;;;;;;9.46;100.00;97103.75;10414337;28;20189;-73
2022/09/01 22:22:49;;;;;;;1.80;1.70;;;;;;;9.41;100.00;97113.81;10396573;28;20682;-73
2022/09/01 22:27:50;;;;;;;2.30;2.00;;;;;;;9.32;100.00;97109.44;10396573;28;20252;-73
2022/09/01 22:32:50;;;;;;;4.23;2.00;;;;;;;9.26;100.00;97116.88;10414001;28;20214;-73
2022/09/01 22:37:50;;;;;;;3.07;2.30;;;;;;;9.24;100.00;97115.34;10414040;28;20209;-73
2022/09/01 22:42:51;;;;;;;5.23;2.40;;;;;;;9.19;100.00;97110.53;10413798;28;20203;-73
2022/09/01 22:47:51;;;;;;;4.07;2.03;;;;;;;9.20;100.00;97114.78;10413341;28;20216;-73
2022/09/01 22:52:52;;;;;;;2.83;2.20;;;;;;;9.16;100.00;97116.03;10413383;28;20199;-73
2022/09/01 22:57:52;;;;;;;6.47;2.17;;;;;;;9.09;100.00;97115.75;10411545;28;20319;-73
2022/09/01 23:02:52;;;;;;;6.93;2.33;;;;;;;9.00;100.00;97107.91;10413287;28;20248;-72
2022/09/01 23:07:53;;;;;;;3.87;2.23;;;;;;;8.95;100.00;97107.50;10412569;28;20228;-73
2022/09/01 23:12:54;;;;;;;2.23;1.83;;;;;;;8.89;100.00;97109.69;10412778;28;20208;-73
2022/09/01 23:17:54;;;;;;;2.30;2.10;;;;;;;8.87;100.00;97103.78;10412357;28;20289;-73
2022/09/01 23:22:54;;;;;;;6.30;2.47;;;;;;;8.81;100.00;97103.50;10412110;28;20189;-73
2022/09/01 23:27:55;;;;;;;5.80;2.20;;;;;;;8.77;100.00;97094.28;10411832;28;20240;-73
2022/09/01 23:32:56;;;;;;;3.93;2.30;;;;;;;8.74;100.00;97098.81;10412189;28;20212;-73
2022/09/01 23:37:57;;;;;;;5.97;2.20;;;;;;;8.71;100.00;97096.47;10412052;28;20271;-73
2022/09/01 23:42:57;;;;;;;2.10;1.90;;;;;;;8.61;100.00;97093.03;10411800;28;20204;-72
2022/09/01 23:47:57;;;;;;;4.30;2.30;;;;;;;8.64;100.00;97091.94;10410637;28;20227;-73
2022/09/01 23:52:58;;;;;;;3.03;2.10;;;;;;;8.62;100.00;97088.63;10411430;28;20200;-73
2022/09/01 23:57:58;;;;;;;2.03;1.80;;;;;;;8.59;100.00;97094.94;10410668;28;20231;-73
